Terminal Aerodrome Forecast
Issued by NWS

Home | Current Version | Previous Version | Text Only | Print | Product List | Glossary On
Versions: 1 2 3 4 5 6 7 8 9 10 11 12 13 14 15 16 17 18 19 20 21 22 23 24 25 26 27 28 29 30 31 32
000
FTUS43 KPAH 011034 AAA
TAFOWB
TAF AMD
KOWB 011034Z 0111/0206 07005KT P6SM -RAPL OVC070
      TEMPO 0111/0115 6SM -RAPL BR SCT035 OVC050
     FM011500 23004KT 3SM -DZ BR OVC025
     FM012100 31005KT 5SM -DZ BR OVC015
     FM020000 33005KT P6SM OVC020=

USA.gov is the U.S. government's official web portal to all federal, state and local government web resources and services.